Terminal Aerodrome Forecast
Issued by NWS

Home | Current Version | Previous Version | Text Only | Print | Product List | Glossary On
Versions: 1 2 3 4 5 6 7 8 9 10 11 12 13 14 15
000
FTUS45 KRIW 260500
TAFWRL
TAF
KWRL 260539Z 2606/2706 16007KT P6SM VCFG SCT004 SCT090
     FM261600 VRB06KT P6SM SCT080
     FM262000 35007KT P6SM VCSH SCT050 BKN080=

USA.gov is the U.S. government's official web portal to all federal, state and local government web resources and services.